Time;durP1;ratioP1;P1;durP2;ratioP2;P2;SDS_P1;SDS_P2;PMS_P1;PMS_P2;Temp;Humidity;BMP_temperature;BMP_pressure;BME280_temperature;BME280_humidity;BME280_pressure;Samples;Min_cycle;Max_cycle;Signal;HPM_P1;HPM_P2
2022/08/12 00:44:42;;;;;;;545.60;507.33;;;;;;;19.83;44.91;96860.03;5033904;28;20558;-65
2022/08/12 00:47:11;;;;;;;684.40;627.92;;;;;;;19.87;45.02;96861.03;5033611;28;20190;-65
2022/08/12 00:49:37;;;;;;;638.97;591.42;;;;;;;19.78;45.23;96860.09;5033773;28;20655;-66
2022/08/12 00:52:05;;;;;;;639.10;589.03;;;;;;;19.77;45.23;96851.31;5033579;28;20721;-65
2022/08/12 00:54:43;;;;;;;673.53;618.85;;;;;;;19.75;45.47;96852.66;5033718;28;20248;-65
2022/08/12 00:57:19;;;;;;;695.13;639.63;;;;;;;19.75;45.58;96855.31;5033586;28;20194;-65
2022/08/12 00:59:48;;;;;;;748.97;688.70;;;;;;;19.77;45.40;96853.19;5034028;28;20252;-66
2022/08/12 01:02:29;;;;;;;757.85;698.30;;;;;;;19.67;45.86;96851.41;5033291;28;20257;-65
2022/08/12 01:13:17;;;;;;;780.42;711.70;;;;;;;19.64;46.19;96854.66;5032480;28;20178;-66
2022/08/12 01:15:44;;;;;;;778.83;713.00;;;;;;;19.61;46.25;96854.44;5033112;28;20178;-66
2022/08/12 01:18:12;;;;;;;780.65;713.92;;;;;;;19.67;46.13;96851.41;5033014;28;20628;-65
2022/08/12 01:20:46;;;;;;;781.15;712.70;;;;;;;19.64;46.44;96854.66;5033639;28;20844;-66
2022/08/12 01:23:40;;;;;;;772.78;702.58;;;;;;;19.65;46.32;96844.81;5032103;28;20175;-66
2022/08/12 01:26:08;;;;;;;695.85;633.22;;;;;;;19.57;46.39;96851.53;5032908;28;20226;-65
2022/08/12 01:28:34;;;;;;;695.22;634.17;;;;;;;19.54;46.71;96844.13;5032650;28;20203;-66
2022/08/12 01:31:03;;;;;;;675.33;617.50;;;;;;;19.58;46.55;96842.47;5031336;28;20260;-65
2022/08/12 01:33:38;;;;;;;708.40;646.30;;;;;;;19.36;47.11;96848.25;5032081;28;20845;-66
2022/08/12 01:36:09;;;;;;;687.20;631.08;;;;;;;19.35;47.31;96840.56;5036353;28;20262;-66
2022/08/12 01:38:35;;;;;;;678.35;624.03;;;;;;;19.40;47.07;96832.53;5033388;28;20183;-65
2022/08/12 01:41:02;;;;;;;696.60;639.75;;;;;;;19.32;47.37;96839.25;5032753;28;20591;-65
2022/08/12 01:43:29;;;;;;;663.17;611.38;;;;;;;19.29;47.46;96836.34;5032587;28;20264;-65
2022/08/12 01:46:13;;;;;;;608.33;561.55;;;;;;;19.21;47.75;96837.78;5031313;28;20179;-65
2022/08/12 01:48:49;;;;;;;551.30;510.02;;;;;;;19.29;47.32;96834.50;5032436;28;20229;-65
2022/08/12 01:51:41;;;;;;;497.80;461.80;;;;;;;19.16;47.94;96832.50;5032345;28;20243;-66
2022/08/12 01:54:07;;;;;;;512.85;476.48;;;;;;;19.18;47.94;96832.22;5032336;28;20167;-65
2022/08/12 01:56:50;;;;;;;492.73;458.42;;;;;;;19.24;47.89;96831.88;5032683;28;20281;-65
2022/08/12 02:02:15;;;;;;;533.83;492.58;;;;;;;19.17;48.03;96820.78;5032139;28;20185;-66
2022/08/12 02:13:50;;;;;;;542.72;503.75;;;;;;;19.12;48.08;96828.81;5031723;28;20224;-65
2022/08/12 02:16:41;;;;;;;533.15;496.95;;;;;;;19.05;48.28;96828.34;5032281;28;20549;-65
2022/08/12 02:19:18;;;;;;;533.95;497.95;;;;;;;19.09;48.16;96827.50;5032418;28;20620;-65
2022/08/12 02:21:49;;;;;;;584.92;541.75;;;;;;;19.02;48.65;96824.38;5032293;28;20175;-66
2022/08/12 02:24:21;;;;;;;596.97;546.58;;;;;;;18.94;48.79;96829.50;5032347;28;20202;-66
2022/08/12 02:26:48;;;;;;;547.92;510.67;;;;;;;18.99;48.72;96826.81;5031802;28;20321;-66
2022/08/12 02:29:15;;;;;;;556.03;517.20;;;;;;;18.99;48.42;96822.28;5032040;28;20194;-66
2022/08/12 02:31:44;;;;;;;548.00;511.45;;;;;;;18.95;48.67;96823.91;5030849;28;20234;-66
2022/08/12 02:34:12;;;;;;;585.35;541.03;;;;;;;18.92;48.75;96813.84;5031964;28;20257;-65
2022/08/12 02:36:38;;;;;;;513.38;478.42;;;;;;;18.89;49.05;96818.94;5032317;28;20182;-65
2022/08/12 02:39:07;;;;;;;520.03;484.02;;;;;;;18.83;49.27;96822.69;5031774;28;20179;-65
2022/08/12 02:41:35;;;;;;;664.85;607.30;;;;;;;18.79;49.16;96821.66;5032323;28;20210;-66
2022/08/12 02:44:07;;;;;;;623.28;575.35;;;;;;;18.73;49.22;96822.75;5031763;28;20195;-65
2022/08/12 02:46:34;;;;;;;577.92;536.67;;;;;;;18.84;49.16;96814.44;5031711;28;20650;-66
2022/08/12 02:49:05;;;;;;;597.78;554.25;;;;;;;18.79;49.14;96809.16;5031942;28;20289;-66
2022/08/12 02:51:35;;;;;;;611.72;564.40;;;;;;;18.76;49.32;96812.38;5031865;28;20202;-66
2022/08/12 02:54:03;;;;;;;618.90;572.00;;;;;;;18.80;49.33;96816.06;5030439;28;20638;-66
2022/08/12 02:56:29;;;;;;;659.65;607.38;;;;;;;18.83;48.99;96807.56;5016002;28;20191;-65
2022/08/12 02:58:56;;;;;;;705.28;645.95;;;;;;;18.73;49.15;96809.47;5032312;28;20193;-66
2022/08/12 03:01:32;;;;;;;693.88;640.42;;;;;;;18.73;49.33;96820.09;5032247;28;20308;-66
2022/08/12 03:04:00;;;;;;;737.13;675.97;;;;;;;18.70;49.41;96805.53;5031964;28;20181;-66
2022/08/12 03:06:31;;;;;;;760.15;696.78;;;;;;;18.67;49.52;96806.84;5032119;28;20467;-65
2022/08/12 03:08:58;;;;;;;744.33;682.70;;;;;;;18.68;49.58;96808.44;5032052;28;20170;-65
2022/08/12 03:11:38;;;;;;;755.92;693.47;;;;;;;18.59;49.54;96804.81;5034193;28;20209;-65
2022/08/12 03:14:10;;;;;;;767.53;702.88;;;;;;;18.67;49.53;96808.72;5035259;28;20324;-65
2022/08/12 03:16:36;;;;;;;789.85;722.10;;;;;;;18.54;49.67;96807.50;5019607;28;20165;-65
2022/08/12 03:19:02;;;;;;;781.72;713.53;;;;;;;18.69;49.39;96807.38;5035618;28;20276;-65
2022/08/12 03:21:31;;;;;;;871.70;794.78;;;;;;;18.70;49.56;96805.53;5035390;28;20283;-65
2022/08/12 03:23:59;;;;;;;846.90;766.43;;;;;;;18.65;49.55;96814.34;5035304;28;20233;-65
2022/08/12 03:26:27;;;;;;;884.08;796.17;;;;;;;18.69;49.66;96814.56;5035304;28;20332;-65
2022/08/12 03:28:56;;;;;;;912.47;821.42;;;;;;;18.63;49.70;96813.00;5034044;28;20273;-65
2022/08/12 03:31:31;;;;;;;925.33;830.60;;;;;;;18.34;50.45;96809.44;5033174;28;20206;-66
2022/08/12 03:34:01;;;;;;;959.17;862.83;;;;;;;18.40;50.50;96814.47;5034746;28;20182;-65
2022/08/12 03:36:28;;;;;;;938.65;845.92;;;;;;;18.34;50.56;96812.09;5035235;28;20261;-65
2022/08/12 03:39:43;;;;;;;946.78;851.38;;;;;;;18.31;50.58;96817.97;5034227;28;20182;-66
2022/08/12 03:42:04;;;;;;;947.92;851.17;;;;;;;18.18;50.89;96811.41;5027304;28;20199;-65
2022/08/12 04:01:24;;;;;;;921.47;832.47;;;;;;;18.15;51.10;96818.06;5020219;28;20253;-66
2022/08/12 04:03:53;;;;;;;852.95;768.40;;;;;;;18.12;51.39;96815.16;5034484;28;20183;-64
2022/08/12 04:06:25;;;;;;;849.50;768.47;;;;;;;17.99;51.67;96818.41;5033075;28;20190;-65
2022/08/12 04:08:55;;;;;;;897.70;807.87;;;;;;;18.05;51.47;96817.34;5034281;28;20571;-64
2022/08/12 04:14:10;;;;;;;912.57;823.57;;;;;;;18.02;51.83;96817.88;5034263;28;20182;-66
2022/08/12 04:16:38;;;;;;;858.45;775.75;;;;;;;18.03;51.94;96812.28;5034119;28;20240;-65
2022/08/12 04:19:04;;;;;;;824.50;745.60;;;;;;;17.94;52.26;96807.84;5033947;28;20193;-65
2022/08/12 04:21:33;;;;;;;817.08;741.50;;;;;;;17.98;52.06;96809.66;5034177;28;20186;-65
2022/08/12 04:24:00;;;;;;;838.83;757.92;;;;;;;17.95;52.22;96809.41;5032517;28;20554;-65
2022/08/12 04:26:27;;;;;;;804.53;727.87;;;;;;;18.00;51.82;96814.72;5033916;28;20233;-65
2022/08/12 04:28:55;;;;;;;810.67;736.67;;;;;;;18.02;51.97;96807.25;5034088;28;20195;-65
2022/08/12 04:31:29;;;;;;;790.67;718.43;;;;;;;18.02;51.89;96816.00;5032594;28;20217;-65
2022/08/12 04:33:56;;;;;;;823.97;747.63;;;;;;;17.99;51.85;96815.78;5033769;28;20193;-64
2022/08/12 04:36:21;;;;;;;814.53;737.63;;;;;;;18.13;51.51;96812.22;5033991;28;20253;-65
2022/08/12 04:38:48;;;;;;;824.53;747.55;;;;;;;18.06;51.82;96809.09;5032683;28;20646;-65
2022/08/12 04:41:14;;;;;;;815.43;737.80;;;;;;;18.00;51.73;96815.47;5034130;28;20241;-65
2022/08/12 04:43:40;;;;;;;800.53;726.13;;;;;;;17.88;52.18;96809.72;5033993;28;20179;-65
2022/08/12 04:46:06;;;;;;;793.13;720.63;;;;;;;17.83;52.44;96813.16;5033742;28;20190;-65
2022/08/12 04:48:31;;;;;;;743.63;678.67;;;;;;;17.81;52.63;96814.50;5033608;28;20639;-65
2022/08/12 04:50:57;;;;;;;762.30;695.77;;;;;;;17.79;52.51;96820.09;5033747;28;20261;-65
2022/08/12 04:53:23;;;;;;;749.53;684.30;;;;;;;17.91;52.47;96816.31;5033190;28;20179;-66
2022/08/12 04:55:51;;;;;;;739.65;674.08;;;;;;;18.10;52.13;96819.97;5033791;28;20182;-66
2022/08/12 04:58:16;;;;;;;774.50;705.17;;;;;;;18.09;52.09;96813.84;5033264;28;20203;-65
2022/08/12 05:00:42;;;;;;;775.90;705.92;;;;;;;18.07;52.21;96818.63;5033303;28;20598;-66
2022/08/12 05:03:07;;;;;;;864.85;784.67;;;;;;;18.44;51.64;96820.81;5033865;28;20588;-65
2022/08/12 05:05:34;;;;;;;896.03;811.63;;;;;;;18.72;50.89;96821.19;5033277;28;20190;-66
2022/08/12 05:07:59;;;;;;;779.95;709.75;;;;;;;18.84;51.12;96813.63;5032936;28;20179;-66
2022/08/12 05:10:25;;;;;;;656.13;606.13;;;;;;;18.72;51.56;96821.19;5032959;28;20209;-66
2022/08/12 05:12:55;;;;;;;598.88;555.83;;;;;;;19.09;50.70;96818.75;5032651;28;20187;-66
2022/08/12 05:15:20;;;;;;;561.78;522.40;;;;;;;19.25;50.22;96816.72;5033103;28;20252;-66
2022/08/12 05:17:46;;;;;;;569.45;529.08;;;;;;;19.41;49.64;96816.31;5033032;28;20183;-65
2022/08/12 05:20:15;;;;;;;628.42;582.17;;;;;;;19.41;49.38;96818.97;5032768;28;20644;-66
2022/08/12 05:22:44;;;;;;;680.85;629.63;;;;;;;19.43;49.16;96822.13;5023863;28;20635;-65
2022/08/12 05:25:14;;;;;;;716.42;660.17;;;;;;;19.17;49.58;96820.78;5032387;28;20265;-65
2022/08/12 05:27:40;;;;;;;740.65;682.17;;;;;;;19.11;49.78;96829.91;5032395;28;20233;-65
2022/08/12 05:30:07;;;;;;;718.53;662.83;;;;;;;19.79;48.46;96827.88;5032917;28;20183;-65
2022/08/12 05:32:33;;;;;;;719.55;664.58;;;;;;;19.62;48.76;96829.41;5036314;28;20189;-65
2022/08/12 05:35:05;;;;;;;730.25;673.70;;;;;;;19.70;48.53;96834.09;5038267;28;20644;-66
2022/08/12 05:37:31;;;;;;;747.58;688.95;;;;;;;20.32;47.27;96841.88;5032782;28;20179;-65
2022/08/12 05:39:57;;;;;;;724.00;669.20;;;;;;;19.97;47.67;96846.81;5031439;28;20269;-66
2022/08/12 05:42:23;;;;;;;775.05;706.30;;;;;;;20.20;47.08;96843.34;5032196;28;20321;-65
2022/08/12 05:44:48;;;;;;;739.40;679.05;;;;;;;20.00;47.20;96844.41;5032686;28;20186;-65
2022/08/12 05:47:14;;;;;;;739.33;682.28;;;;;;;20.08;47.51;96857.06;5032843;28;20186;-65
2022/08/12 05:49:40;;;;;;;732.13;670.63;;;;;;;20.15;47.02;96854.06;5032788;28;20186;-65
2022/08/12 05:52:07;;;;;;;708.53;649.75;;;;;;;20.19;47.38;96863.03;5032561;28;20226;-66
2022/08/12 05:54:33;;;;;;;622.53;578.08;;;;;;;20.51;46.01;96862.38;5032428;28;20631;-66
2022/08/12 05:56:58;;;;;;;593.60;552.25;;;;;;;20.62;45.87;96861.16;5032576;28;20611;-65
2022/08/12 05:59:23;;;;;;;605.30;563.17;;;;;;;20.39;46.43;96862.03;5033001;28;20218;-65
2022/08/12 06:01:49;;;;;;;609.20;566.22;;;;;;;20.90;45.05;96862.09;5032293;28;20214;-66
2022/08/12 06:04:14;;;;;;;624.35;579.55;;;;;;;20.81;45.32;96863.81;5031120;28;20182;-66
2022/08/12 06:06:42;;;;;;;606.67;562.33;;;;;;;20.77;45.52;96865.47;5032334;28;20214;-66
2022/08/12 06:09:12;;;;;;;567.28;526.80;;;;;;;20.99;44.73;96868.34;5032592;28;20715;-66
2022/08/12 06:11:40;;;;;;;533.58;495.00;;;;;;;21.01;44.91;96866.19;5032008;28;20311;-66
2022/08/12 06:14:07;;;;;;;534.72;497.02;;;;;;;21.60;44.02;96865.47;5031865;28;20182;-66
2022/08/12 06:16:34;;;;;;;561.33;522.42;;;;;;;21.14;44.05;96865.41;5032020;28;20221;-65
2022/08/12 06:18:59;;;;;;;511.30;476.98;;;;;;;21.36;43.86;96868.28;5032597;28;20536;-65
2022/08/12 06:21:24;;;;;;;465.48;434.30;;;;;;;21.64;43.79;96862.97;5032253;28;20193;-65
2022/08/12 06:23:53;;;;;;;458.33;428.55;;;;;;;22.04;42.91;96875.56;5031331;28;20190;-66
2022/08/12 06:26:19;;;;;;;480.55;448.90;;;;;;;21.48;44.05;96865.13;5032298;28;20288;-65
2022/08/12 06:28:50;;;;;;;411.20;383.30;;;;;;;22.24;41.81;96872.50;5031563;28;20639;-65
2022/08/12 06:31:17;;;;;;;448.23;417.63;;;;;;;21.69;42.99;96869.00;5031395;28;20627;-65
2022/08/12 06:33:45;;;;;;;467.48;435.38;;;;;;;21.77;42.47;96871.00;5032227;28;20186;-64
2022/08/12 06:36:12;;;;;;;509.58;476.73;;;;;;;21.61;44.12;96872.38;5032092;28;20623;-65
2022/08/12 06:38:39;;;;;;;441.02;411.55;;;;;;;21.32;43.63;96874.50;5031891;28;20244;-64
2022/08/12 06:43:52;;;;;;;466.33;435.25;;;;;;;22.45;42.27;96872.06;5032372;28;20221;-64
2022/08/12 06:46:20;;;;;;;482.90;448.75;;;;;;;22.32;42.54;96869.13;5034782;28;20186;-64
2022/08/12 06:48:46;;;;;;;483.27;450.33;;;;;;;21.96;42.60;96869.03;5035787;28;20580;-65
2022/08/12 06:51:12;;;;;;;462.90;431.42;;;;;;;22.61;41.79;96865.31;5035968;28;20209;-64
2022/08/12 06:53:37;;;;;;;510.00;475.58;;;;;;;22.61;41.80;96876.00;5036129;28;20182;-64
2022/08/12 06:56:05;;;;;;;488.90;454.77;;;;;;;22.71;41.86;96870.41;5035459;28;20194;-64
2022/08/12 06:58:31;;;;;;;501.58;466.13;;;;;;;22.49;41.84;96871.16;5036018;28;20248;-63
2022/08/12 07:00:58;;;;;;;528.80;492.65;;;;;;;22.41;42.33;96877.22;5035926;28;20880;-63
2022/08/12 07:03:27;;;;;;;537.50;500.63;;;;;;;22.46;41.69;96871.00;5036122;28;20221;-64
2022/08/12 07:06:05;;;;;;;538.55;503.33;;;;;;;22.53;41.22;96869.47;5035795;28;20190;-64
2022/08/12 07:08:33;;;;;;;525.20;489.05;;;;;;;22.65;41.49;96867.06;5035538;28;20171;-64
2022/08/12 07:11:03;;;;;;;643.08;592.10;;;;;;;21.83;41.45;96875.16;5034685;28;20288;-64
2022/08/12 07:13:37;;;;;;;535.28;500.25;;;;;;;22.35;41.35;96879.19;5035015;28;20175;-64
2022/08/12 07:16:03;;;;;;;519.70;483.58;;;;;;;22.69;41.50;96876.06;5035659;28;20628;-64
2022/08/12 07:18:31;;;;;;;593.13;551.63;;;;;;;21.90;42.05;96880.88;5035375;28;20217;-65
2022/08/12 07:21:00;;;;;;;580.38;535.03;;;;;;;21.42;42.82;96877.78;5035127;28;20269;-66
2022/08/12 07:23:26;;;;;;;650.17;586.60;;;;;;;21.66;42.34;96872.28;5035477;28;20261;-64
2022/08/12 07:25:53;;;;;;;512.00;477.67;;;;;;;22.20;41.12;96879.53;5035164;28;20581;-64
2022/08/12 07:28:22;;;;;;;463.85;431.80;;;;;;;22.25;41.18;96865.28;5035544;28;20273;-64
2022/08/12 07:30:49;;;;;;;466.25;433.98;;;;;;;22.75;40.33;96868.75;5034359;28;20352;-66
2022/08/12 07:33:15;;;;;;;494.02;461.10;;;;;;;23.31;38.98;96873.53;5034840;28;20202;-64
2022/08/12 07:35:44;;;;;;;542.65;506.88;;;;;;;23.14;39.86;96876.91;5033620;28;20586;-64
2022/08/12 07:38:32;;;;;;;562.30;524.17;;;;;;;23.17;38.86;96875.50;5035387;28;20709;-64
2022/08/12 07:41:13;;;;;;;613.15;570.90;;;;;;;22.70;40.27;96868.84;5035157;28;20187;-64
2022/08/12 07:43:41;;;;;;;606.38;564.08;;;;;;;22.46;40.73;96874.44;5033406;28;20309;-64
2022/08/12 07:46:10;;;;;;;612.80;570.33;;;;;;;22.92;39.39;96874.22;5034937;28;20183;-64
2022/08/12 07:48:38;;;;;;;635.17;582.97;;;;;;;22.62;39.50;96870.34;5034950;28;20191;-63
2022/08/12 07:51:04;;;;;;;645.28;588.95;;;;;;;22.38;39.55;96867.94;5034625;28;20202;-64
2022/08/12 07:53:30;;;;;;;986.67;662.38;;;;;;;22.57;39.21;96862.44;5034976;28;20193;-65
2022/08/12 07:55:55;;;;;;;765.78;682.88;;;;;;;22.53;40.06;96869.47;5034891;28;20191;-64
2022/08/12 07:58:25;;;;;;;580.50;535.45;;;;;;;22.36;39.81;96871.97;5033868;28;20187;-63
2022/08/12 08:00:53;;;;;;;524.47;486.92;;;;;;;23.00;38.78;96870.03;5033441;28;20190;-63
2022/08/12 08:03:19;;;;;;;623.20;568.42;;;;;;;23.02;38.58;96868.63;5034650;28;20191;-64
2022/08/12 08:05:47;;;;;;;861.00;690.08;;;;;;;22.77;38.97;96863.91;5034679;28;20705;-66
2022/08/12 08:08:19;;;;;;;498.55;463.38;;;;;;;23.77;38.11;96857.13;5033458;28;20192;-63
2022/08/12 08:10:45;;;;;;;528.17;490.17;;;;;;;23.76;37.16;96847.50;5033833;28;20246;-64
2022/08/12 08:13:11;;;;;;;555.47;516.55;;;;;;;24.18;36.56;96854.16;5034181;28;20240;-64
2022/08/12 08:15:38;;;;;;;557.42;514.13;;;;;;;23.72;37.01;96843.88;5034545;28;20194;-64
2022/08/12 08:18:06;;;;;;;567.53;520.55;;;;;;;23.67;36.52;96856.63;5033804;28;20616;-64
2022/08/12 08:20:44;;;;;;;518.05;481.58;;;;;;;23.58;36.73;96849.31;5033137;28;20193;-64
2022/08/12 08:23:16;;;;;;;490.42;456.50;;;;;;;23.76;35.67;96852.88;5030295;28;20577;-65
2022/08/12 08:25:42;;;;;;;458.15;425.17;;;;;;;23.90;35.54;96858.91;5031918;28;20735;-64
2022/08/12 08:28:11;;;;;;;413.33;386.40;;;;;;;23.97;35.71;96851.19;5033446;28;20632;-64
2022/08/12 08:30:41;;;;;;;471.80;439.60;;;;;;;24.07;34.88;96854.72;5032811;28;20202;-64
2022/08/12 08:33:10;;;;;;;426.63;399.23;;;;;;;24.46;34.84;96853.88;5043093;28;20202;-64
2022/08/12 08:35:38;;;;;;;444.23;416.05;;;;;;;24.32;35.43;96862.81;5033644;28;20189;-64
2022/08/12 08:38:07;;;;;;;490.35;456.17;;;;;;;23.89;35.83;96857.34;5034006;28;20607;-63
2022/08/12 08:43:19;;;;;;;435.27;407.23;;;;;;;24.63;35.67;96860.00;5033581;28;20186;-64
2022/08/12 08:45:47;;;;;;;467.05;436.98;;;;;;;25.00;34.80;96853.25;5033995;28;20183;-64
2022/08/12 08:48:12;;;;;;;495.35;464.05;;;;;;;24.85;33.41;96854.50;5032804;28;20179;-64
2022/08/12 08:50:38;;;;;;;441.67;413.83;;;;;;;24.26;34.79;96857.91;5032647;28;20214;-64
2022/08/12 08:53:07;;;;;;;439.15;411.30;;;;;;;24.30;34.40;96848.16;5033116;28;20237;-64
2022/08/12 08:55:34;;;;;;;558.10;515.58;;;;;;;24.59;34.23;96850.25;5032325;28;20248;-63
2022/08/12 08:58:00;;;;;;;530.85;495.50;;;;;;;24.40;34.84;96846.00;5033028;28;20186;-63
2022/08/12 09:00:25;;;;;;;448.73;419.60;;;;;;;24.06;35.05;96837.84;5033603;28;20186;-63
2022/08/12 09:02:50;;;;;;;425.00;398.27;;;;;;;24.10;34.90;96846.03;5032591;28;20193;-64
2022/08/12 09:05:16;;;;;;;485.33;451.13;;;;;;;23.99;34.88;96842.88;5033054;28;20210;-64
2022/08/12 09:07:49;;;;;;;618.20;566.05;;;;;;;23.99;35.36;96848.22;5033194;28;20279;-64
2022/08/12 09:10:18;;;;;;;617.95;566.17;;;;;;;23.87;36.04;96851.50;5033091;28;20186;-64
2022/08/12 09:15:29;;;;;;;545.55;508.33;;;;;;;24.44;35.20;96854.19;5033270;28;20262;-66
2022/08/12 09:17:56;;;;;;;506.90;473.00;;;;;;;24.71;34.88;96856.56;5033507;28;20273;-64
2022/08/12 09:20:24;;;;;;;565.67;525.97;;;;;;;24.74;34.74;96844.44;5033129;28;20190;-65
2022/08/12 09:22:50;;;;;;;520.28;482.42;;;;;;;24.65;34.71;96849.78;5031730;28;20193;-65
2022/08/12 09:25:17;;;;;;;419.67;391.65;;;;;;;24.39;35.13;96847.09;5032722;28;20547;-64
2022/08/12 09:27:42;;;;;;;392.55;365.27;;;;;;;24.73;34.56;96843.63;5033916;28;20690;-64
2022/08/12 09:30:14;;;;;;;441.55;409.38;;;;;;;24.32;34.12;96840.59;5025326;28;20210;-65
2022/08/12 09:32:49;;;;;;;455.13;420.13;;;;;;;24.53;34.25;96843.44;5032178;28;20253;-65
2022/08/12 09:35:30;;;;;;;453.17;421.45;;;;;;;24.26;34.78;96836.50;5026173;28;20189;-65
2022/08/12 09:37:56;;;;;;;531.13;486.38;;;;;;;24.54;34.60;96843.16;5031407;28;20167;-63
2022/08/12 09:40:23;;;;;;;426.48;395.73;;;;;;;24.55;33.81;96827.84;5032624;28;20266;-63
2022/08/12 09:45:34;;;;;;;427.60;392.85;;;;;;;24.51;33.64;96838.44;5032648;28;20598;-63
2022/08/12 09:48:07;;;;;;;423.02;392.73;;;;;;;24.43;34.38;96823.91;5032797;28;20746;-64
2022/08/12 09:50:34;;;;;;;391.58;363.73;;;;;;;24.92;34.22;96821.88;5033026;28;20644;-63
2022/08/12 09:53:06;;;;;;;404.80;376.63;;;;;;;24.86;33.98;96813.16;5032446;28;20178;-63
2022/08/12 09:55:32;;;;;;;517.33;484.45;;;;;;;24.90;32.90;96816.06;5032165;28;20273;-63
2022/08/12 09:57:58;;;;;;;693.38;623.38;;;;;;;24.64;33.85;96821.38;5032955;28;20609;-64
2022/08/12 10:00:26;;;;;;;415.70;385.92;;;;;;;24.88;33.93;96806.69;5033080;28;20189;-63
2022/08/12 10:03:09;;;;;;;444.92;412.58;;;;;;;24.72;34.71;96807.19;5032969;28;20619;-63
2022/08/12 10:05:45;;;;;;;1259.32;738.50;;;;;;;24.64;34.73;96807.97;5033086;28;20522;-63
2022/08/12 10:08:13;;;;;;;437.42;404.60;;;;;;;24.79;34.38;96807.50;5032822;28;20170;-63
2022/08/12 10:13:43;;;;;;;406.25;377.58;;;;;;;25.02;33.96;96799.31;5018228;28;20213;-64
2022/08/12 10:16:22;;;;;;;376.40;350.25;;;;;;;24.74;34.45;96788.88;5012698;28;20179;-64
2022/08/12 10:18:49;;;;;;;969.85;766.13;;;;;;;24.75;34.57;96789.66;5022403;28;20206;-63
2022/08/12 10:21:17;;;;;;;811.17;636.53;;;;;;;25.32;33.62;96784.06;5034670;28;20774;-68
2022/08/12 10:23:48;;;;;;;482.08;451.77;;;;;;;24.99;34.18;96787.31;5036865;28;20260;-66
2022/08/12 10:31:45;;;;;;;512.33;476.27;;;;;;;25.17;33.43;96777.34;5048088;28;20212;-66
2022/08/12 10:34:13;;;;;;;524.38;487.80;;;;;;;25.08;33.35;96776.53;5056483;28;20182;-66
2022/08/12 10:36:42;;;;;;;671.28;605.38;;;;;;;25.19;32.85;96783.16;5056439;28;20197;-66
2022/08/12 10:39:10;;;;;;;517.97;481.10;;;;;;;25.50;33.10;96766.78;5037606;28;20273;-66
2022/08/12 10:44:19;;;;;;;446.33;416.38;;;;;;;25.77;32.53;96785.16;5033561;28;20185;-65
2022/08/12 10:46:45;;;;;;;556.22;517.38;;;;;;;25.08;32.74;96779.22;5034736;28;20261;-65
2022/08/12 10:49:11;;;;;;;479.23;448.13;;;;;;;25.32;32.68;96776.00;5034954;28;20627;-65
2022/08/12 10:51:38;;;;;;;510.58;476.70;;;;;;;25.54;32.45;96773.06;5033892;28;20612;-65
2022/08/12 10:54:04;;;;;;;510.15;475.35;;;;;;;25.57;31.91;96773.28;5034741;28;20321;-65
2022/08/12 10:56:33;;;;;;;596.42;551.30;;;;;;;25.43;32.39;96772.66;5034643;28;20191;-65
2022/08/12 10:58:59;;;;;;;537.20;500.42;;;;;;;25.24;32.77;96764.22;5034836;28;20183;-65
2022/08/12 11:01:26;;;;;;;533.25;496.20;;;;;;;25.19;32.67;96759.78;5035330;28;20229;-65
2022/08/12 11:03:52;;;;;;;539.50;502.45;;;;;;;25.32;32.25;96758.00;5018942;28;20183;-65
2022/08/12 11:06:20;;;;;;;533.03;495.77;;;;;;;25.82;31.75;96763.50;5035021;28;20189;-65
2022/08/12 11:08:46;;;;;;;611.92;567.72;;;;;;;25.68;31.74;96752.22;5035930;28;20186;-65
2022/08/12 11:11:16;;;;;;;583.30;541.70;;;;;;;25.56;31.00;96752.09;5035552;28;20218;-65
2022/08/12 11:13:43;;;;;;;621.38;575.20;;;;;;;25.23;31.00;96743.84;5035757;28;20183;-65
2022/08/12 11:16:09;;;;;;;585.67;543.47;;;;;;;25.61;31.11;96744.66;5035755;28;20193;-64
2022/08/12 11:18:34;;;;;;;1775.60;945.08;;;;;;;25.63;30.16;96739.72;5035030;28;20178;-65
2022/08/12 11:21:00;;;;;;;792.25;710.28;;;;;;;25.32;30.69;96738.44;5034845;28;20194;-63
2022/08/12 11:23:26;;;;;;;592.58;553.15;;;;;;;25.61;30.23;96749.22;5035444;28;20261;-62
2022/08/12 11:25:51;;;;;;;569.00;531.83;;;;;;;25.56;30.13;96739.47;5028980;28;20324;-62
2022/08/12 11:28:17;;;;;;;617.63;577.28;;;;;;;25.48;30.63;96731.41;5035001;28;20518;-62
2022/08/12 11:30:43;;;;;;;569.95;530.45;;;;;;;25.93;30.29;96731.66;5028757;28;20209;-62
2022/08/12 11:33:10;;;;;;;607.38;567.05;;;;;;;26.27;30.03;96727.97;5034143;28;20261;-62
2022/08/12 11:35:35;;;;;;;582.10;544.22;;;;;;;26.58;29.49;96730.25;5034912;28;20186;-61
2022/08/12 11:38:02;;;;;;;509.38;475.35;;;;;;;26.76;29.17;96735.09;5034873;28;20190;-62
2022/08/12 11:40:28;;;;;;;541.90;507.38;;;;;;;26.90;28.99;96726.78;5034496;28;20581;-61
2022/08/12 11:42:53;;;;;;;491.30;462.10;;;;;;;26.47;29.53;96735.25;5034546;28;20179;-62
2022/08/12 11:45:19;;;;;;;778.47;705.30;;;;;;;25.91;29.79;96729.31;5034456;28;20272;-65
2022/08/12 11:47:45;;;;;;;508.75;478.70;;;;;;;25.46;30.76;96731.75;5034817;28;20738;-62
2022/08/12 11:50:11;;;;;;;514.10;482.77;;;;;;;25.58;30.19;96725.69;5034364;28;20189;-63
2022/08/12 11:52:36;;;;;;;684.63;631.15;;;;;;;25.95;30.30;96719.50;5034568;28;20559;-62
2022/08/12 11:55:02;;;;;;;573.33;532.90;;;;;;;26.03;30.27;96729.38;5036425;28;20187;-62
2022/08/12 11:57:27;;;;;;;1211.75;752.75;;;;;;;25.52;30.40;96729.69;5034037;28;20199;-63
2022/08/12 11:59:52;;;;;;;493.98;464.00;;;;;;;26.13;29.70;96733.59;5034464;28;20214;-62
2022/08/12 12:02:18;;;;;;;533.50;501.20;;;;;;;25.56;30.19;96722.56;5034456;28;20631;-63
2022/08/12 12:04:44;;;;;;;531.22;497.30;;;;;;;25.73;30.18;96719.78;5034157;28;20670;-63
2022/08/12 12:07:09;;;;;;;538.55;506.00;;;;;;;25.97;29.79;96722.63;5034431;28;20261;-64
2022/08/12 12:09:35;;;;;;;451.95;424.10;;;;;;;25.98;29.77;96718.81;5034545;28;20182;-63
2022/08/12 12:12:03;;;;;;;542.33;507.15;;;;;;;26.15;29.26;96714.44;5034413;28;20224;-63
2022/08/12 12:14:29;;;;;;;503.90;471.55;;;;;;;25.92;29.61;96711.28;5034095;28;20675;-63
2022/08/12 12:16:54;;;;;;;889.75;663.40;;;;;;;25.67;29.86;96715.72;5033663;28;20273;-63
2022/08/12 12:19:19;;;;;;;457.15;428.60;;;;;;;25.62;29.79;96710.53;5034004;28;20543;-63
2022/08/12 12:21:45;;;;;;;532.42;497.58;;;;;;;25.54;30.47;96705.97;5034372;28;20264;-63
2022/08/12 12:24:11;;;;;;;532.22;493.27;;;;;;;25.92;30.19;96705.91;5033161;28;20266;-63
2022/08/12 12:26:36;;;;;;;596.72;548.97;;;;;;;25.62;30.21;96702.50;5033660;28;20226;-63
2022/08/12 12:29:01;;;;;;;853.00;692.80;;;;;;;25.42;30.36;96705.88;5035277;28;20210;-63
2022/08/12 12:31:27;;;;;;;586.17;544.92;;;;;;;25.80;29.82;96703.94;5033456;28;20212;-63
2022/08/12 12:33:52;;;;;;;484.83;455.75;;;;;;;26.13;29.67;96706.72;5033611;28;20186;-63
2022/08/12 12:36:17;;;;;;;456.17;427.63;;;;;;;26.56;29.23;96703.69;5033395;28;20190;-63
2022/08/12 12:38:43;;;;;;;623.90;581.25;;;;;;;26.51;29.31;96703.09;5033145;28;20186;-63
2022/08/12 12:41:08;;;;;;;779.88;720.83;;;;;;;26.18;29.80;96698.47;5033793;28;20186;-63
2022/08/12 12:43:34;;;;;;;654.70;609.28;;;;;;;26.76;28.96;96702.03;5033387;28;20646;-63
2022/08/12 12:45:59;;;;;;;586.72;550.22;;;;;;;26.79;28.74;96698.69;5033539;28;20186;-63
2022/08/12 12:48:24;;;;;;;563.35;528.72;;;;;;;27.59;28.55;96696.34;5032304;28;20185;-63
2022/08/12 12:53:42;;;;;;;599.28;556.50;;;;;;;27.27;27.41;96698.78;5028053;28;20178;-63
2022/08/12 12:56:14;;;;;;;577.13;535.25;;;;;;;27.35;28.02;96702.50;5033312;28;20190;-63